Time;durP1;ratioP1;P1;durP2;ratioP2;P2;SDS_P1;SDS_P2;PMS_P1;PMS_P2;Temp;Humidity;BMP_temperature;BMP_pressure;BME280_temperature;BME280_humidity;BME280_pressure;Samples;Min_cycle;Max_cycle;Signal;HPM_P1;HPM_P2
2023/08/26 00:01:13;;;;;;;10.27;7.47;;;;;;;22.26;100.00;98999.59;4863484;29;20025;-92
2023/08/26 00:03:38;;;;;;;7.57;6.72;;;;;;;22.25;100.00;99000.59;4863212;29;20485;-92
2023/08/26 00:06:04;;;;;;;8.38;6.95;;;;;;;22.25;100.00;99008.53;4880105;29;20107;-92
2023/08/26 00:08:29;;;;;;;11.68;7.00;;;;;;;22.18;100.00;99002.22;4862873;29;20067;-92
2023/08/26 00:10:55;;;;;;;8.35;7.20;;;;;;;22.13;100.00;98994.75;4863084;29;20036;-92
2023/08/26 00:13:20;;;;;;;7.03;6.43;;;;;;;22.13;100.00;99000.03;4862818;29;20048;-93
2023/08/26 00:15:45;;;;;;;7.72;6.97;;;;;;;22.13;100.00;99008.00;4863332;29;20043;-92
2023/08/26 00:18:11;;;;;;;7.60;6.75;;;;;;;22.05;100.00;98997.34;4863059;29;20119;-92
2023/08/26 00:20:38;;;;;;;8.15;7.43;;;;;;;22.05;100.00;99004.47;4862756;29;20033;-92
2023/08/26 00:23:03;;;;;;;7.85;7.07;;;;;;;22.06;100.00;99011.41;4862974;29;20112;-92
2023/08/26 00:25:29;;;;;;;8.48;6.85;;;;;;;21.97;100.00;99005.25;4862645;29;20077;-93
2023/08/26 00:27:55;;;;;;;8.52;6.95;;;;;;;21.95;100.00;99003.75;4862771;29;20036;-92
2023/08/26 00:30:20;;;;;;;8.07;7.28;;;;;;;21.88;100.00;99009.69;4862655;29;20025;-92
2023/08/26 00:32:46;;;;;;;9.10;7.50;;;;;;;21.87;100.00;99018.66;4862833;29;20157;-92
2023/08/26 00:35:11;;;;;;;9.98;7.35;;;;;;;21.86;100.00;99032.03;4862689;29;20116;-92
2023/08/26 00:37:36;;;;;;;7.38;6.65;;;;;;;21.79;100.00;99033.69;4879190;29;20029;-93
2023/08/26 00:40:02;;;;;;;8.82;6.75;;;;;;;21.74;100.00;99014.75;4862565;29;20024;-92
2023/08/26 00:42:27;;;;;;;7.85;7.05;;;;;;;21.74;100.00;99025.34;4862230;29;20112;-93
2023/08/26 00:44:53;;;;;;;9.93;7.22;;;;;;;21.67;100.00;99009.28;4862569;29;20086;-92
2023/08/26 00:47:18;;;;;;;8.50;7.70;;;;;;;21.70;100.00;99016.06;4862529;29;20029;-92
2023/08/26 00:49:44;;;;;;;8.20;7.35;;;;;;;21.62;100.00;99001.78;4862128;29;20427;-92
2023/08/26 00:52:09;;;;;;;8.95;8.05;;;;;;;21.66;100.00;99018.22;4875327;29;20029;-92
2023/08/26 00:54:35;;;;;;;8.90;7.30;;;;;;;21.57;100.00;99012.00;4862260;29;20496;-91
2023/08/26 00:57:05;;;;;;;8.80;7.68;;;;;;;21.59;100.00;99012.69;4862169;29;20052;-92
2023/08/26 00:59:30;;;;;;;8.40;7.55;;;;;;;21.56;100.00;99010.34;4862062;29;20031;-92
2023/08/26 01:01:57;;;;;;;8.52;7.72;;;;;;;21.44;100.00;98990.41;4862297;29;20024;-92
2023/08/26 01:04:23;;;;;;;9.73;8.73;;;;;;;21.48;100.00;99010.31;4862096;29;20033;-92
2023/08/26 01:06:49;;;;;;;9.38;7.90;;;;;;;21.42;100.00;99011.78;4862237;29;20031;-93
2023/08/26 01:09:14;;;;;;;9.13;7.68;;;;;;;21.46;100.00;99027.38;4862094;29;20044;-92
2023/08/26 01:11:45;;;;;;;9.07;7.85;;;;;;;21.45;100.00;99026.53;4877202;29;20116;-93
2023/08/26 01:14:21;;;;;;;8.40;7.40;;;;;;;21.41;100.00;99031.31;4862107;29;20036;-92
2023/08/26 01:16:48;;;;;;;8.50;7.60;;;;;;;21.42;100.00;99032.97;4861901;29;20120;-92
2023/08/26 01:19:33;;;;;;;8.95;7.80;;;;;;;21.36;100.00;99024.81;4862028;29;20529;-92
2023/08/26 01:22:04;;;;;;;9.02;8.13;;;;;;;21.30;100.00;99034.19;4861583;29;20123;-92
2023/08/26 01:24:30;;;;;;;9.00;7.15;;;;;;;21.29;100.00;99021.09;4861773;29;20025;-92
2023/08/26 01:26:57;;;;;;;10.63;8.18;;;;;;;21.27;100.00;99017.75;4863700;29;20084;-92
2023/08/26 01:29:22;;;;;;;7.97;7.25;;;;;;;21.24;100.00;99013.63;4861940;29;20033;-92
2023/08/26 01:31:54;;;;;;;11.95;7.57;;;;;;;21.28;100.00;99017.63;4861515;29;20036;-92
2023/08/26 01:34:24;;;;;;;8.65;7.85;;;;;;;21.21;100.00;99005.97;4861826;29;20029;-92
2023/08/26 01:36:51;;;;;;;9.75;8.25;;;;;;;21.20;100.00;99009.63;4869539;29;20057;-92
2023/08/26 01:39:18;;;;;;;8.75;7.90;;;;;;;21.16;100.00;99010.91;4861620;29;20432;-92
2023/08/26 01:41:48;;;;;;;8.20;7.15;;;;;;;21.13;100.00;99013.88;4878154;29;20076;-92
2023/08/26 01:44:15;;;;;;;8.32;7.53;;;;;;;21.13;100.00;99012.03;4838874;29;20073;-92
2023/08/26 01:46:40;;;;;;;10.45;7.35;;;;;;;21.11;100.00;99010.53;4838756;29;20158;-92
2023/08/26 01:49:06;;;;;;;9.60;8.60;;;;;;;21.04;100.00;99012.97;4838909;29;20229;-92
2023/08/26 01:51:32;;;;;;;8.93;7.32;;;;;;;21.04;100.00;99007.66;4823544;29;20525;-92
2023/08/26 01:53:57;;;;;;;8.65;7.75;;;;;;;20.96;100.00;99010.25;4823803;29;20068;-92
2023/08/26 01:56:23;;;;;;;7.93;6.90;;;;;;;20.95;100.00;99005.94;4856810;29;20088;-92
2023/08/26 01:58:48;;;;;;;8.10;7.28;;;;;;;21.03;100.00;99005.19;4841591;29;20074;-92
2023/08/26 02:01:13;;;;;;;8.75;7.03;;;;;;;21.01;100.00;99007.16;4841794;29;20075;-92
2023/08/26 02:03:39;;;;;;;7.85;6.97;;;;;;;21.02;100.00;99024.69;4841328;29;20045;-92
2023/08/26 02:06:04;;;;;;;7.70;6.50;;;;;;;20.97;100.00;99013.72;4841778;29;20079;-92
2023/08/26 02:08:29;;;;;;;7.10;6.43;;;;;;;20.89;100.00;99009.19;4841568;29;20116;-92
2023/08/26 02:10:56;;;;;;;9.00;6.72;;;;;;;20.89;100.00;99004.72;4841634;29;20533;-92
2023/08/26 02:13:22;;;;;;;9.90;7.30;;;;;;;20.83;100.00;98997.41;4841859;29;20057;-93
2023/08/26 02:15:47;;;;;;;7.63;6.82;;;;;;;20.81;100.00;99004.66;4855079;29;20047;-92
2023/08/26 02:18:13;;;;;;;7.65;6.85;;;;;;;20.80;100.00;99003.00;4860104;29;20032;-92
2023/08/26 02:20:42;;;;;;;6.75;6.05;;;;;;;20.81;100.00;99003.84;4859759;29;20226;-92
2023/08/26 02:23:08;;;;;;;10.77;6.50;;;;;;;20.79;100.00;98998.69;4875508;29;20113;-92
2023/08/26 02:25:33;;;;;;;7.07;6.43;;;;;;;20.71;100.00;98987.22;4875426;29;20056;-92
2023/08/26 02:27:58;;;;;;;8.35;7.50;;;;;;;20.75;100.00;98994.69;4871813;29;20048;-93
2023/08/26 02:30:24;;;;;;;9.88;7.50;;;;;;;20.77;100.00;98991.88;4861178;29;20036;-92
2023/08/26 02:32:49;;;;;;;8.55;6.75;;;;;;;20.74;100.00;98997.50;4860833;29;20378;-92
2023/08/26 02:35:15;;;;;;;7.85;6.57;;;;;;;20.70;100.00;98977.63;4861140;29;20064;-92
2023/08/26 02:37:40;;;;;;;6.63;5.97;;;;;;;20.67;100.00;98973.44;4842846;29;20040;-92
2023/08/26 02:40:06;;;;;;;7.45;6.75;;;;;;;20.66;100.00;98971.81;4842661;29;20041;-92
2023/08/26 02:42:32;;;;;;;7.57;6.07;;;;;;;20.64;100.00;98981.69;4858735;29;20040;-92
2023/08/26 02:44:58;;;;;;;7.03;6.30;;;;;;;20.65;100.00;98992.13;4859278;29;20030;-92
2023/08/26 02:47:23;;;;;;;6.60;5.93;;;;;;;20.60;100.00;98981.16;4842535;29;20045;-91
2023/08/26 02:49:49;;;;;;;6.90;5.93;;;;;;;20.56;100.00;98978.97;4842337;29;20040;-92
2023/08/26 02:52:14;;;;;;;6.53;5.90;;;;;;;20.54;100.00;98981.78;4842609;29;20065;-91
2023/08/26 02:54:39;;;;;;;7.70;6.45;;;;;;;20.51;100.00;98981.25;4842249;29;20600;-91
2023/08/26 02:57:05;;;;;;;6.53;5.93;;;;;;;20.55;100.00;98994.00;4801784;29;20080;-91
2023/08/26 02:59:30;;;;;;;6.88;6.18;;;;;;;20.44;100.00;98986.28;4786695;29;20505;-91
2023/08/26 03:02:02;;;;;;;7.65;4.93;;;;;;;20.53;100.00;99003.09;4786886;29;20055;-91
2023/08/26 03:04:27;;;;;;;6.55;5.55;;;;;;;20.47;100.00;98999.19;4802117;29;20679;-92
2023/08/26 03:06:52;;;;;;;6.40;5.63;;;;;;;20.45;100.00;98995.88;4786690;29;20092;-92
2023/08/26 03:09:18;;;;;;;6.45;5.80;;;;;;;20.42;100.00;98998.81;4810547;29;20498;-92
2023/08/26 03:11:43;;;;;;;6.97;5.47;;;;;;;20.44;100.00;99008.28;4822803;29;20065;-91
2023/08/26 03:14:08;;;;;;;7.10;5.60;;;;;;;20.36;100.00;98994.13;4823961;29;20025;-92
2023/08/26 03:16:34;;;;;;;7.35;5.47;;;;;;;20.33;100.00;99007.66;4825811;29;20065;-92
2023/08/26 03:18:59;;;;;;;7.95;5.50;;;;;;;20.31;100.00;99017.53;4826057;29;20026;-92
2023/08/26 03:21:24;;;;;;;7.93;5.35;;;;;;;20.21;100.00;99004.38;4841583;29;20037;-92
2023/08/26 03:23:50;;;;;;;7.40;5.28;;;;;;;20.23;100.00;99018.31;4825773;29;20034;-91
2023/08/26 03:26:15;;;;;;;5.53;4.97;;;;;;;20.25;100.00;99026.06;4826024;29;20030;-92
2023/08/26 03:28:40;;;;;;;6.05;5.50;;;;;;;20.21;100.00;99011.47;4845036;29;20049;-92
2023/08/26 03:31:06;;;;;;;8.73;5.40;;;;;;;20.15;100.00;99005.81;4859405;29;20048;-91
2023/08/26 03:33:33;;;;;;;6.35;5.75;;;;;;;20.22;100.00;99010.50;4844211;29;20042;-93
2023/08/26 03:36:02;;;;;;;5.93;5.43;;;;;;;20.17;100.00;99003.00;4844186;29;20041;-92
2023/08/26 03:38:27;;;;;;;8.52;5.57;;;;;;;20.13;100.00;99007.75;4844172;29;20644;-91
2023/08/26 03:40:52;;;;;;;5.72;5.22;;;;;;;20.21;100.00;99011.47;4843876;29;20033;-91
2023/08/26 03:43:18;;;;;;;5.82;5.28;;;;;;;20.15;100.00;98981.19;4844041;29;20549;-92
2023/08/26 03:45:43;;;;;;;9.27;5.60;;;;;;;20.13;100.00;98991.91;4843716;29;20044;-92
2023/08/26 03:48:08;;;;;;;6.43;5.82;;;;;;;20.11;100.00;98998.34;4843997;29;20032;-92
2023/08/26 03:50:34;;;;;;;6.03;5.40;;;;;;;20.07;100.00;98989.84;4843638;29;20080;-92
2023/08/26 03:52:59;;;;;;;6.93;5.50;;;;;;;20.07;100.00;98989.84;4843883;29;20026;-92
2023/08/26 03:55:24;;;;;;;6.75;5.40;;;;;;;20.13;100.00;99004.28;4843732;29;20666;-92
2023/08/26 03:57:50;;;;;;;8.43;6.20;;;;;;;20.17;100.00;99001.19;4843643;29;20064;-91
2023/08/26 04:00:17;;;;;;;7.85;5.88;;;;;;;20.23;100.00;99009.53;4843907;29;20033;-92
2023/08/26 04:02:43;;;;;;;5.70;5.20;;;;;;;20.24;100.00;99011.19;4848909;29;20044;-92
2023/08/26 04:05:08;;;;;;;6.72;5.70;;;;;;;20.24;100.00;99003.25;4860256;29;20017;-92
2023/08/26 04:07:33;;;;;;;6.90;5.47;;;;;;;20.23;100.00;99007.72;4844819;29;20070;-92
2023/08/26 04:09:59;;;;;;;7.90;5.65;;;;;;;20.33;100.00;99013.78;4844369;29;20029;-92
2023/08/26 04:12:24;;;;;;;7.10;5.82;;;;;;;20.32;100.00;99014.75;4860120;29;20041;-91
2023/08/26 04:14:49;;;;;;;8.13;5.70;;;;;;;20.37;100.00;99016.94;4859764;29;20028;-92
2023/08/26 04:17:15;;;;;;;6.18;5.40;;;;;;;20.45;100.00;99035.56;4844704;29;20508;-92
2023/08/26 04:19:40;;;;;;;6.88;6.18;;;;;;;20.51;100.00;99042.09;4860973;29;20033;-92
2023/08/26 04:22:07;;;;;;;9.55;6.10;;;;;;;20.56;100.00;99039.81;4859859;29;20036;-92
2023/08/26 04:24:33;;;;;;;7.53;6.28;;;;;;;20.63;100.00;99032.94;4859761;29;20435;-92
2023/08/26 04:26:58;;;;;;;6.43;5.90;;;;;;;20.70;100.00;99036.66;4859541;29;20036;-92
2023/08/26 04:29:24;;;;;;;7.22;6.05;;;;;;;20.72;100.00;99039.97;4844456;29;20089;-91
2023/08/26 04:31:49;;;;;;;7.25;6.55;;;;;;;20.75;100.00;99034.38;4859522;29;20022;-93
2023/08/26 04:34:14;;;;;;;49.78;42.22;;;;;;;20.72;100.00;99024.09;4859675;29;20129;-92
2023/08/26 04:36:40;;;;;;;51.53;45.75;;;;;;;20.89;100.00;99033.84;4859140;29;20029;-92
2023/08/26 04:39:11;;;;;;;24.63;22.05;;;;;;;20.98;100.00;99037.41;4859532;29;20041;-92
2023/08/26 04:41:39;;;;;;;13.98;11.20;;;;;;;20.99;100.00;99039.06;4875108;29;20116;-92
2023/08/26 04:44:08;;;;;;;10.65;8.88;;;;;;;21.10;100.00;99048.59;4859375;29;20018;-92
2023/08/26 04:46:33;;;;;;;8.25;6.80;;;;;;;21.14;100.00;99042.00;4859556;29;20108;-92
2023/08/26 04:48:59;;;;;;;10.52;7.57;;;;;;;21.22;100.00;99052.66;4859279;29;20125;-92
2023/08/26 04:51:24;;;;;;;8.63;6.93;;;;;;;21.25;100.00;99036.47;4859367;29;20385;-92
2023/08/26 04:53:49;;;;;;;9.65;7.03;;;;;;;21.29;100.00;99031.69;4859166;29;20037;-92
2023/08/26 04:56:15;;;;;;;9.27;8.27;;;;;;;21.33;100.00;99041.84;4859138;29;20064;-92
2023/08/26 04:58:40;;;;;;;8.57;7.78;;;;;;;21.43;100.00;99031.16;4859052;29;20074;-92
2023/08/26 05:01:06;;;;;;;8.18;7.38;;;;;;;21.62;100.00;99032.78;4859233;29;20025;-92
2023/08/26 05:03:31;;;;;;;8.63;7.45;;;;;;;21.84;100.00;99044.66;4858866;29;20032;-93
2023/08/26 05:05:57;;;;;;;7.78;7.05;;;;;;;22.02;100.00;99053.34;4858965;29;20053;-92
2023/08/26 05:08:22;;;;;;;8.13;6.95;;;;;;;22.27;100.00;99062.25;4859091;29;20037;-92
2023/08/26 05:10:47;;;;;;;7.20;6.60;;;;;;;22.61;100.00;99054.22;4858711;29;20494;-92
2023/08/26 05:13:13;;;;;;;7.00;6.32;;;;;;;23.06;100.00;99057.47;4858940;29;20025;-92
2023/08/26 05:15:38;;;;;;;8.18;6.78;;;;;;;23.37;100.00;99061.09;4858940;29;20092;-92
2023/08/26 05:18:04;;;;;;;8.15;6.68;;;;;;;23.63;100.00;99062.72;4858638;29;20037;-92
2023/08/26 05:20:30;;;;;;;10.10;7.38;;;;;;;23.71;100.00;99061.91;4858862;29;20065;-92
2023/08/26 05:22:56;;;;;;;7.18;6.25;;;;;;;23.92;100.00;99064.00;4858660;29;20040;-91
2023/08/26 05:25:21;;;;;;;9.63;6.68;;;;;;;24.29;100.00;99060.69;4858864;29;20026;-92
2023/08/26 05:27:47;;;;;;;8.07;7.18;;;;;;;24.64;100.00;99060.19;4858570;29;20022;-93
2023/08/26 05:30:13;;;;;;;8.00;6.45;;;;;;;24.61;100.00;99057.06;4843382;29;20021;-91
2023/08/26 05:32:38;;;;;;;6.68;6.10;;;;;;;24.47;100.00;99061.28;4858712;29;20394;-92
2023/08/26 05:35:04;;;;;;;7.15;5.78;;;;;;;24.49;100.00;99059.31;4858498;29;20021;-92
2023/08/26 05:37:29;;;;;;;6.82;6.13;;;;;;;24.41;100.00;99053.19;4858190;29;20049;-92
2023/08/26 05:39:55;;;;;;;7.88;6.22;;;;;;;24.34;100.00;99051.19;4858426;29;20063;-92
2023/08/26 05:42:20;;;;;;;7.63;6.15;;;;;;;24.39;100.00;99050.69;4873992;29;20067;-92
2023/08/26 05:44:45;;;;;;;6.78;6.00;;;;;;;24.27;100.00;99046.72;4858397;29;20084;-92
2023/08/26 05:47:11;;;;;;;6.85;6.25;;;;;;;24.10;100.00;99045.97;4858607;29;20433;-91
2023/08/26 05:49:36;;;;;;;9.32;6.20;;;;;;;24.05;100.00;99050.97;4858431;29;20029;-92
2023/08/26 05:52:01;;;;;;;6.22;5.72;;;;;;;24.17;100.00;99054.09;4858314;29;20113;-92
2023/08/26 05:54:27;;;;;;;8.40;5.80;;;;;;;24.38;100.00;99062.34;4846856;29;20657;-93
2023/08/26 05:56:53;;;;;;;5.80;5.20;;;;;;;24.44;100.00;99063.47;4859257;29;20100;-92
2023/08/26 05:59:18;;;;;;;6.00;5.20;;;;;;;24.55;100.00;99063.91;4842940;29;20064;-92
2023/08/26 06:01:44;;;;;;;7.57;6.13;;;;;;;24.67;100.00;99072.34;4842938;29;20026;-93
2023/08/26 06:04:09;;;;;;;6.50;5.82;;;;;;;24.86;100.00;99087.00;4843055;29;20029;-93
2023/08/26 06:06:36;;;;;;;5.97;5.38;;;;;;;24.92;100.00;99091.66;4838610;29;20045;-93
2023/08/26 06:09:02;;;;;;;6.20;5.60;;;;;;;25.02;100.00;99097.56;4857048;29;20042;-93
2023/08/26 06:11:27;;;;;;;5.70;5.00;;;;;;;25.14;100.00;99098.00;4857050;29;20054;-93
2023/08/26 06:13:53;;;;;;;6.70;5.25;;;;;;;25.21;100.00;99109.63;4841396;29;20573;-93
2023/08/26 06:16:21;;;;;;;5.65;5.07;;;;;;;25.21;100.00;99108.78;4841761;29;20045;-92
2023/08/26 06:18:47;;;;;;;5.25;4.75;;;;;;;25.29;100.00;99120.22;4841581;29;20036;-93
2023/08/26 06:21:13;;;;;;;6.10;4.82;;;;;;;25.26;99.66;99111.75;4841716;29;20038;-94
2023/08/26 06:23:38;;;;;;;5.53;5.00;;;;;;;25.25;99.52;99105.59;4856797;29;20026;-92
2023/08/26 06:26:03;;;;;;;5.35;4.88;;;;;;;25.24;99.19;99119.94;4856898;29;20053;-93
2023/08/26 06:28:30;;;;;;;5.88;5.18;;;;;;;25.25;99.37;99124.25;4841649;29;20061;-93
2023/08/26 06:31:00;;;;;;;5.18;4.68;;;;;;;25.30;100.00;99132.53;4856739;29;20482;-93
2023/08/26 06:33:26;;;;;;;5.22;4.72;;;;;;;25.29;100.00;99127.41;4841463;29;20177;-94
2023/08/26 06:35:52;;;;;;;5.68;5.00;;;;;;;25.30;99.50;99131.72;4841487;29;20174;-93
2023/08/26 06:38:18;;;;;;;5.80;5.15;;;;;;;25.28;99.11;99131.91;4857948;29;20156;-93
2023/08/26 06:40:44;;;;;;;5.45;4.95;;;;;;;25.38;99.68;99139.66;4842659;29;20025;-93
2023/08/26 06:43:09;;;;;;;6.35;5.75;;;;;;;25.37;99.63;99127.34;4842704;29;20034;-94
2023/08/26 06:45:34;;;;;;;5.68;5.18;;;;;;;25.34;99.24;99131.16;4842737;29;20116;-93
2023/08/26 06:48:00;;;;;;;5.93;5.32;;;;;;;25.38;99.02;99131.66;4838262;29;20042;-93
2023/08/26 06:50:25;;;;;;;5.90;5.07;;;;;;;25.44;99.73;99125.59;4841165;29;20042;-94
2023/08/26 06:52:51;;;;;;;7.28;5.18;;;;;;;25.61;99.58;99135.09;4826272;29;20466;-93
2023/08/26 06:55:17;;;;;;;5.90;5.30;;;;;;;25.82;99.48;99147.75;4843205;29;20547;-95
2023/08/26 06:57:43;;;;;;;7.40;5.10;;;;;;;25.90;98.83;99146.03;4860305;29;20048;-93
2023/08/26 07:00:08;;;;;;;6.03;5.43;;;;;;;25.93;98.49;99148.34;4859958;29;20049;-93
2023/08/26 07:02:34;;;;;;;5.63;4.95;;;;;;;25.83;98.65;99156.59;4860245;29;20072;-94
2023/08/26 07:05:00;;;;;;;4.63;4.18;;;;;;;25.70;98.36;99159.03;4859901;29;20034;-95
2023/08/26 07:07:25;;;;;;;5.10;4.70;;;;;;;25.57;98.55;99171.13;4860000;29;20048;-93
2023/08/26 07:09:50;;;;;;;6.03;5.05;;;;;;;25.42;98.89;99162.28;4859824;29;20130;-93
2023/08/26 07:12:16;;;;;;;5.85;4.85;;;;;;;25.37;99.45;99167.31;4859910;29;20073;-94
2023/08/26 07:15:01;;;;;;;7.72;4.78;;;;;;;25.29;100.00;99167.38;4860019;29;20072;-95
2023/08/26 07:17:27;;;;;;;6.75;5.25;;;;;;;25.22;100.00;99166.41;4807926;29;20502;-93
2023/08/26 07:19:52;;;;;;;5.53;4.88;;;;;;;25.14;100.00;99160.13;4807742;29;20042;-93
2023/08/26 07:22:17;;;;;;;4.80;4.40;;;;;;;25.23;100.00;99165.41;4822784;29;20042;-93
2023/08/26 07:24:43;;;;;;;5.70;5.03;;;;;;;25.37;100.00;99164.66;4807871;29;20095;-93
2023/08/26 07:27:09;;;;;;;5.07;4.65;;;;;;;25.59;100.00;99152.31;4807623;29;20042;-93
2023/08/26 07:29:34;;;;;;;7.07;4.97;;;;;;;25.75;100.00;99151.34;4807908;29;20031;-93
2023/08/26 07:32:00;;;;;;;5.55;4.80;;;;;;;25.87;99.49;99152.56;4807499;29;20513;-93
2023/08/26 07:34:25;;;;;;;5.07;4.57;;;;;;;26.00;99.61;99155.44;4807698;29;20038;-95
2023/08/26 07:36:52;;;;;;;5.25;4.75;;;;;;;26.01;99.25;99153.59;4807431;29;20131;-93
2023/08/26 07:39:18;;;;;;;5.72;4.80;;;;;;;25.95;99.45;99147.13;4807945;29;20430;-95
2023/08/26 07:41:44;;;;;;;5.05;4.55;;;;;;;26.12;99.47;99140.66;4807706;29;20022;-93
2023/08/26 07:44:16;;;;;;;5.07;4.15;;;;;;;27.21;98.51;99154.09;4809867;29;20388;-96
2023/08/26 07:46:42;;;;;;;4.93;4.50;;;;;;;28.44;93.56;99151.97;4824739;29;20061;-92
2023/08/26 07:49:07;;;;;;;4.80;4.40;;;;;;;28.86;90.46;99156.25;4851277;29;20737;-92
2023/08/26 07:51:32;;;;;;;4.95;4.22;;;;;;;29.17;89.43;99173.72;4860211;29;20033;-92
2023/08/26 07:53:58;;;;;;;4.43;4.10;;;;;;;29.21;88.33;99191.06;4862126;29;20021;-90
2023/08/26 07:56:23;;;;;;;4.53;4.13;;;;;;;28.90;88.32;99187.00;4862021;29;20549;-91
2023/08/26 07:58:49;;;;;;;4.80;4.40;;;;;;;28.52;88.44;99190.13;4861899;29;20060;-91
2023/08/26 08:01:14;;;;;;;6.65;5.22;;;;;;;28.09;89.49;99176.06;4862270;29;20017;-90
2023/08/26 08:03:40;;;;;;;4.80;4.40;;;;;;;27.77;89.99;99169.44;4861974;29;20077;-91
2023/08/26 08:06:05;;;;;;;4.57;4.18;;;;;;;27.66;90.90;99165.41;4861543;29;20495;-92
2023/08/26 08:08:30;;;;;;;4.55;4.15;;;;;;;27.85;91.57;99183.53;4861796;29;20091;-92
2023/08/26 08:10:56;;;;;;;4.68;4.28;;;;;;;28.06;91.31;99181.78;4861888;29;20033;-92
2023/08/26 08:13:21;;;;;;;4.93;4.43;;;;;;;28.25;90.05;99202.53;4862723;29;20131;-91
2023/08/26 08:15:47;;;;;;;4.85;4.40;;;;;;;28.17;89.83;99194.66;4865481;29;20055;-93
2023/08/26 08:18:33;;;;;;;4.75;4.35;;;;;;;28.01;89.25;99189.59;4863014;29;20385;-96
2023/08/26 09:10:02;;;;;;;5.65;5.05;;;;;;;27.98;88.27;99166.72;4882969;29;20059;-96
2023/08/26 10:18:47;;;;;;;4.53;3.88;;;;;;;28.71;81.47;99131.50;4875742;29;20064;-94
2023/08/26 10:22:22;;;;;;;5.15;4.50;;;;;;;28.61;82.29;99139.88;4713529;30;20049;-94
2023/08/26 10:25:50;;;;;;;5.13;4.55;;;;;;;28.70;82.97;99125.31;4716799;30;20087;-94
2023/08/26 10:31:57;;;;;;;;;;;;;;;28.89;81.14;99137.09;4683047;30;20084;-95
2023/08/26 14:44:28;;;;;;;3.95;3.55;;;;;;;27.71;80.01;99114.81;4850195;29;20651;-92
2023/08/26 14:46:53;;;;;;;3.28;2.97;;;;;;;27.67;80.17;99105.53;4855951;29;20458;-91
2023/08/26 14:49:18;;;;;;;3.17;2.97;;;;;;;27.66;79.82;99111.91;4839625;29;20117;-91
2023/08/26 14:51:44;;;;;;;3.20;2.90;;;;;;;27.66;79.52;99119.94;4855094;29;20529;-92
2023/08/26 14:54:30;;;;;;;4.55;3.00;;;;;;;27.67;78.87;99118.09;4841009;29;20033;-92
2023/08/26 14:56:57;;;;;;;3.80;3.08;;;;;;;27.65;79.21;99122.81;4856166;29;20049;-91
2023/08/26 14:59:22;;;;;;;3.75;2.60;;;;;;;27.31;79.32;99076.25;4819025;29;20034;-91
2023/08/26 15:01:48;;;;;;;3.42;3.13;;;;;;;27.51;79.11;99108.50;4815266;29;20046;-91
2023/08/26 15:04:15;;;;;;;3.30;2.85;;;;;;;27.02;78.88;99026.44;4819168;29;20044;-90
2023/08/26 15:06:41;;;;;;;3.17;2.92;;;;;;;27.32;79.98;99059.19;4815616;29;20166;-91
2023/08/26 15:09:10;;;;;;;3.17;2.97;;;;;;;27.27;79.83;99050.94;4815564;29;20129;-90
2023/08/26 15:11:35;;;;;;;3.50;3.25;;;;;;;27.28;80.33;99066.78;4824841;29;20030;-90
2023/08/26 15:14:07;;;;;;;3.55;3.08;;;;;;;27.59;80.12;99114.53;4840926;29;20045;-90
2023/08/26 15:16:33;;;;;;;3.00;2.65;;;;;;;27.61;79.86;99115.19;4838565;29;20412;-90
2023/08/26 15:18:59;;;;;;;3.05;2.80;;;;;;;27.62;79.88;99113.31;4825599;29;20042;-91
2023/08/26 15:21:25;;;;;;;5.90;3.00;;;;;;;27.40;79.12;99075.09;4839371;29;20018;-92
2023/08/26 15:23:51;;;;;;;3.65;3.10;;;;;;;27.72;80.34;99129.84;4840217;29;20033;-91
2023/08/26 15:26:18;;;;;;;3.95;3.35;;;;;;;27.81;81.04;99122.53;4840528;29;20030;-90
2023/08/26 15:28:45;;;;;;;3.05;2.83;;;;;;;27.92;80.00;99124.69;4825625;29;20160;-90
2023/08/26 15:31:11;;;;;;;3.08;2.75;;;;;;;27.97;79.96;99098.13;4853791;29;20054;-91
2023/08/26 15:33:36;;;;;;;3.20;3.00;;;;;;;28.06;79.07;99093.44;4826582;29;20048;-90
2023/08/26 15:36:03;;;;;;;3.10;2.90;;;;;;;28.14;79.72;99104.00;4841989;29;20025;-90
2023/08/26 15:38:31;;;;;;;3.28;2.97;;;;;;;28.19;79.40;99122.16;4826173;29;20030;-90
2023/08/26 15:40:58;;;;;;;3.40;2.95;;;;;;;28.19;79.07;99119.47;4826797;29;20029;-91
2023/08/26 15:43:26;;;;;;;3.40;3.10;;;;;;;28.09;79.12;99109.94;4856626;29;20029;-91
2023/08/26 15:45:52;;;;;;;2.85;2.65;;;;;;;28.04;79.56;99103.53;4826312;29;20040;-92
2023/08/26 15:48:20;;;;;;;3.20;2.70;;;;;;;27.73;79.37;99056.63;4841149;29;20074;-91
2023/08/26 15:50:45;;;;;;;3.05;2.75;;;;;;;27.79;78.86;99076.41;4841405;29;20034;-90
2023/08/26 15:53:17;;;;;;;3.17;2.97;;;;;;;27.70;79.44;99066.88;4856671;29;20067;-92
2023/08/26 15:55:46;;;;;;;3.38;3.13;;;;;;;27.91;79.74;99111.50;4858464;29;20065;-91
2023/08/26 15:58:15;;;;;;;3.50;3.20;;;;;;;27.39;80.26;99054.72;4843136;29;20066;-92
2023/08/26 16:00:42;;;;;;;3.40;3.10;;;;;;;27.27;81.39;99049.09;4843462;29;20038;-92
2023/08/26 16:03:13;;;;;;;4.75;4.35;;;;;;;27.38;82.39;99079.78;4843683;29;20030;-91
2023/08/26 16:05:39;;;;;;;;;;;;;;;27.63;83.00;99120.31;4843799;29;20045;-93
2023/08/26 16:08:06;;;;;;;3.92;3.58;;;;;;;27.34;82.00;99087.38;4843064;29;19916;-91
2023/08/26 16:10:33;;;;;;;4.35;3.95;;;;;;;27.54;82.32;99116.97;4858737;29;20524;-92
2023/08/26 16:12:59;;;;;;;4.05;3.65;;;;;;;27.65;81.13;99133.53;4858853;29;20068;-92
2023/08/26 16:15:24;;;;;;;3.65;3.33;;;;;;;27.65;81.00;99130.84;4858605;29;20124;-92
2023/08/26 16:17:50;;;;;;;4.53;4.05;;;;;;;27.56;81.81;99119.47;4843188;29;20040;-92
2023/08/26 16:20:15;;;;;;;5.38;3.92;;;;;;;27.43;82.05;99106.81;4843347;29;20527;-92
2023/08/26 16:22:41;;;;;;;4.07;3.55;;;;;;;27.40;83.01;99117.88;4842852;29;20033;-92
2023/08/26 16:25:07;;;;;;;5.55;4.03;;;;;;;27.22;83.59;99096.97;4840125;29;20142;-92
2023/08/26 16:27:35;;;;;;;5.07;3.80;;;;;;;27.31;84.24;99122.53;4826861;29;20042;-90
2023/08/26 16:30:04;;;;;;;5.30;3.83;;;;;;;26.83;83.97;99052.75;4822274;29;20041;-89
2023/08/26 16:32:29;;;;;;;3.72;3.42;;;;;;;27.16;84.73;99105.72;4834998;29;20029;-90
2023/08/26 16:34:54;;;;;;;4.25;3.85;;;;;;;27.11;85.20;99116.19;4839900;29;20033;-91
2023/08/26 16:37:20;;;;;;;3.33;3.05;;;;;;;27.05;86.52;99124.91;4832162;29;20071;-90
2023/08/26 16:39:46;;;;;;;3.85;3.55;;;;;;;26.90;86.32;99116.97;4820060;29;20074;-90
2023/08/26 16:42:12;;;;;;;4.35;3.10;;;;;;;26.91;86.58;99123.97;4835077;29;20064;-89
2023/08/26 16:44:37;;;;;;;3.47;3.17;;;;;;;26.81;86.66;99120.78;4839395;29;20028;-89
2023/08/26 16:47:07;;;;;;;4.82;3.50;;;;;;;26.68;87.75;99107.28;4834490;29;20030;-90
2023/08/26 16:49:36;;;;;;;4.00;3.47;;;;;;;26.50;88.25;99110.31;4813229;29;20379;-89
2023/08/26 16:52:02;;;;;;;4.38;4.00;;;;;;;26.27;89.92;99089.06;4809125;29;20026;-91
2023/08/26 16:54:28;;;;;;;4.57;4.18;;;;;;;26.46;90.04;99133.91;4806183;29;20034;-90
2023/08/26 16:56:54;;;;;;;4.65;4.25;;;;;;;26.34;90.35;99124.72;4811106;29;20035;-90
2023/08/26 16:59:19;;;;;;;4.82;4.40;;;;;;;26.37;91.37;99143.00;4788101;29;20690;-90
2023/08/26 17:01:45;;;;;;;6.05;5.45;;;;;;;26.28;92.33;99136.09;4794583;29;20129;-89
2023/08/26 17:04:10;;;;;;;6.47;5.88;;;;;;;26.04;92.16;99113.19;4826754;29;20061;-90
2023/08/26 17:06:35;;;;;;;6.15;5.55;;;;;;;26.16;94.03;99151.75;4843590;29;20078;-90
2023/08/26 17:09:01;;;;;;;7.65;6.90;;;;;;;26.12;94.62;99154.00;4843665;29;20128;-90
2023/08/26 17:11:26;;;;;;;44.30;27.27;;;;;;;26.05;92.86;99141.56;4843537;29;20027;-90
2023/08/26 17:13:52;;;;;;;140.90;103.97;;;;;;;25.97;93.65;99131.78;4843813;29;20093;-90
2023/08/26 17:16:17;;;;;;;129.38;102.03;;;;;;;25.86;94.53;99125.03;4843652;29;20053;-92
2023/08/26 17:18:42;;;;;;;100.32;75.40;;;;;;;25.74;94.89;99115.81;4843555;29;20033;-89
2023/08/26 17:21:08;;;;;;;21.40;17.90;;;;;;;25.86;95.21;99134.91;4843656;29;20030;-89
2023/08/26 17:23:33;;;;;;;17.52;15.48;;;;;;;25.76;94.82;99113.78;4874147;29;20116;-90
2023/08/26 17:25:59;;;;;;;19.25;16.17;;;;;;;25.76;94.98;99111.13;4860270;29;20029;-88
2023/08/26 17:28:25;;;;;;;15.98;13.88;;;;;;;25.67;95.06;99096.22;4859730;29;20033;-93
2023/08/26 17:30:54;;;;;;;22.00;16.35;;;;;;;25.34;95.16;99053.88;4826960;29;20029;-93
2023/08/26 17:33:20;;;;;;;17.88;15.82;;;;;;;25.76;96.37;99119.13;4843071;29;20076;-90